Alaska Titan — WDE4789 — position and weather

sailwx.info

Track history (hours):
 
Tides and Currents Weather Stations Pressure Air Temp Water Temp Dewpoint Dewpoint Depression Visibility Wind Speed Wind Dir Waves Ship Positions

Alaska Titan

Owner: WESTERN TOWBOAT CO, Seattle, WA. More information available from US FCC via Universal Licensing System and Coast Guard Vessel Documentation Center.

Last reported at 2017-Aug-23 08:29 UTC. Time now 2017-Aug-23 09:45 UTC.
Position N 50°42' W 126°56'.

Length 40 m; draft 7 m.

Type: Tow > 200 m length. MMSI: 367357890.

Date/timePositionNaut miles runAvg speedWind from/ knotsBaromVisibWave heightAir tempDewpointWater temp
2017-Aug-23 08:29N 50°42' W 126°56'510.0
2017-Aug-23 07:59N 50°44' W 127°03'510.5
2017-Aug-23 07:30N 50°47' W 127°10'510.3
2017-Aug-23 07:00N 50°50' W 127°16'510.5
2017-Aug-23 06:30N 50°54' W 127°22'510.0
2017-Aug-23 06:00N 50°57' W 127°28'4 8.9
2017-Aug-23 05:30N 50°59' W 127°34'4 8.2
2017-Aug-23 05:00N 51°02' W 127°38'4 8.0
2017-Aug-23 04:30N 51°05' W 127°43'4 8.2
2017-Aug-23 04:00N 51°07' W 127°48'5 8.7
2017-Aug-23 03:29N 51°11' W 127°51'4 9.2
2017-Aug-23 03:00N 51°16' W 127°53'5 9.1
2017-Aug-23 02:24N 51°20' W 127°57'3 8.7
2017-Aug-23 02:00N 51°23' W 128°01'4 8.3
2017-Aug-23 01:30N 51°26' W 128°06'4 8.4
2017-Aug-23 01:00N 51°29' W 128°11'5 9.0
2017-Aug-23 00:30N 51°33' W 128°14'5 9.2
2017-Aug-23 00:00N 51°37' W 128°18'4 8.9
2017-Aug-22 23:30N 51°40' W 128°22'5 9.4
2017-Aug-22 23:00N 51°44' W 128°26'5 9.5
2017-Aug-22 22:30N 51°49' W 128°30'5 9.1
2017-Aug-22 22:00N 51°53' W 128°33'4 8.9
2017-Aug-22 21:30N 51°57' W 128°35'5 9.0
2017-Aug-22 21:00N 52°01' W 128°38'4 8.8
2017-Aug-22 20:30N 52°05' W 128°40'4 8.3
2017-Aug-22 20:00N 52°09' W 128°43'  
2017-Aug-20 07:59N 58°16' W 135°38'4 9.1
2017-Aug-20 07:29N 58°18' W 135°45'5 9.5
2017-Aug-20 07:00N 58°17' W 135°54'60 8.5
2017-Aug-20 00:00N 58°18' W 137°48'50 8.4 150 / 151012.3 5.4 16.3
2017-Aug-19 18:00N 58°36' W 139°18'53 8.8 160 / 221010.5 5.4 15.0
2017-Aug-19 12:00N 58°54' W 140°54'55 9.2 150 / 251010.0 5.4 14.4
2017-Aug-19 06:00N 59°12' W 142°36'49 8.2 150 / 201010.5 5.4 12.2
2017-Aug-19 00:00N 59°30' W 144°06'   150 / 101010.210.8 17.9
2017-Aug-15 12:00N 59°48' W 145°12'115 9.6 100 / 201009.0 5.4 11.9
2017-Aug-15 00:00N 59°06' W 141°42'106 8.8 210 / 151011.010.8 14.7
2017-Aug-14 12:00N 58°30' W 138°30'79 7.4 250 / 151007.010.8 13.9
2017-Aug-14 01:19N 58°16' W 136°01'3 9.8
2017-Aug-14 01:00N 58°17' W 135°56'5 9.8
2017-Aug-14 00:30N 58°18' W 135°47'  
Track history (hours):
 
Tides and Currents Weather Stations Pressure Air Temp Water Temp Dewpoint Dewpoint Depression Visibility Wind Speed Wind Dir Waves Ship Positions

Alaska Titan

Owner: WESTERN TOWBOAT CO, Seattle, WA. More information available from US FCC via Universal Licensing System and Coast Guard Vessel Documentation Center.

Last reported at 2017-Aug-23 08:29 UTC. Time now 2017-Aug-23 09:45 UTC.
Position N 50°42' W 126°56'.

Length 40 m; draft 7 m.

Type: Tow > 200 m length. MMSI: 367357890.

Date/timePositionNaut miles runAvg speedWind from/ knotsBaromVisibWave heightAir tempDewpointWater temp
2017-Aug-23 08:29N 50°42' W 126°56'510.0
2017-Aug-23 07:59N 50°44' W 127°03'510.5
2017-Aug-23 07:30N 50°47' W 127°10'510.3
2017-Aug-23 07:00N 50°50' W 127°16'510.5
2017-Aug-23 06:30N 50°54' W 127°22'510.0
2017-Aug-23 06:00N 50°57' W 127°28'4 8.9
2017-Aug-23 05:30N 50°59' W 127°34'4 8.2
2017-Aug-23 05:00N 51°02' W 127°38'4 8.0
2017-Aug-23 04:30N 51°05' W 127°43'4 8.2
2017-Aug-23 04:00N 51°07' W 127°48'5 8.7
2017-Aug-23 03:29N 51°11' W 127°51'4 9.2
2017-Aug-23 03:00N 51°16' W 127°53'5 9.1
2017-Aug-23 02:24N 51°20' W 127°57'3 8.7
2017-Aug-23 02:00N 51°23' W 128°01'4 8.3
2017-Aug-23 01:30N 51°26' W 128°06'4 8.4
2017-Aug-23 01:00N 51°29' W 128°11'5 9.0
2017-Aug-23 00:30N 51°33' W 128°14'5 9.2
2017-Aug-23 00:00N 51°37' W 128°18'4 8.9
2017-Aug-22 23:30N 51°40' W 128°22'5 9.4
2017-Aug-22 23:00N 51°44' W 128°26'5 9.5
2017-Aug-22 22:30N 51°49' W 128°30'5 9.1
2017-Aug-22 22:00N 51°53' W 128°33'4 8.9
2017-Aug-22 21:30N 51°57' W 128°35'5 9.0
2017-Aug-22 21:00N 52°01' W 128°38'4 8.8
2017-Aug-22 20:30N 52°05' W 128°40'4 8.3
2017-Aug-22 20:00N 52°09' W 128°43'  
2017-Aug-20 07:59N 58°16' W 135°38'4 9.1
2017-Aug-20 07:29N 58°18' W 135°45'5 9.5
2017-Aug-20 07:00N 58°17' W 135°54'60 8.5
2017-Aug-20 00:00N 58°18' W 137°48'50 8.4 150 / 151012.3 5.4 16.3
2017-Aug-19 18:00N 58°36' W 139°18'53 8.8 160 / 221010.5 5.4 15.0
2017-Aug-19 12:00N 58°54' W 140°54'55 9.2 150 / 251010.0 5.4 14.4
2017-Aug-19 06:00N 59°12' W 142°36'49 8.2 150 / 201010.5 5.4 12.2
2017-Aug-19 00:00N 59°30' W 144°06'   150 / 101010.210.8 17.9
2017-Aug-15 12:00N 59°48' W 145°12'115 9.6 100 / 201009.0 5.4 11.9
2017-Aug-15 00:00N 59°06' W 141°42'106 8.8 210 / 151011.010.8 14.7
2017-Aug-14 12:00N 58°30' W 138°30'79 7.4 250 / 151007.010.8 13.9
2017-Aug-14 01:19N 58°16' W 136°01'3 9.8
2017-Aug-14 01:00N 58°17' W 135°56'5 9.8
2017-Aug-14 00:30N 58°18' W 135°47'  

Dump ship's entire track history